Cyrus, Minnesota
Current Conditions -  °F | °C
As of 10:53 AM on Friday 28 Nov 2014 (Local Time) from KMOX Reporting Station
Broken Clouds Broken Clouds  
Wind Chill:   Ceiling: 7000
Heat Index: 16°   Visibility: 10mi
Dew Point:   Wind: 12mph
Humidity: 73%   Direction: 120°ESE
Pressure: 29.88"   Gusts: NA
Location:  45.61°N, 95.74°W
Report Text: KMOX 281653Z AUTO 12010KT 10SM BKN070 M09/M13 A2988 RMK AO2
Loading
Personal Weather Stations






























Interactive Weather Map New forecast layout! Learn more

10-Day Weather Forecast

Advertisements
Track Severe Weather on mobile